Other Surface Observations
Issued by NWS Great Falls, MT

Home | Current Version | Previous Version | Text Only | Print | Product List | Glossary On
Versions: 1 2 3 4 5 6 7 8 9 10 11 12 13 14 15 16 17 18 19 20 21 22 23 24 25 26 27 28 29 30 31 32 33 34 35 36 37 38 39 40 41 42 43 44 45 46 47 48 49 50
130
SXUS55 KTFX 211302
OSOTFX

AREA AWOS OBSERVATIONS
NATIONAL WEATHER SERVICE GREAT FALLS MT
0604 AM MDT Sat Oct 21 2017

METAR K97M 211055Z AUTO 27011KT 40SM 06/M04 A2966 RMK A01 T00611038
METAR K9S5 211155Z AUTO 24000KT 40SM 03/M06 A2993 RMK A01 T00331055
METAR KRPX 211055Z AUTO 24013KT 40SM 07/M07 A2968 RMK A01 T00661066
METAR KTHM 211055Z AUTO 22000KT 40SM 03/02 A2999 RMK A01 T00330022



USA.gov is the U.S. government's official web portal to all federal, state and local government web resources and services.